sensor_id;sensor_type;location;lat;lon;timestamp;temperature;humidity
3134;DHT22;1577;49.912;10.924;2023-08-20T00:00:34;24.40;99.90
3134;DHT22;1577;49.912;10.924;2023-08-20T00:03:13;24.30;99.90
3134;DHT22;1577;49.912;10.924;2023-08-20T00:05:40;24.20;99.90
3134;DHT22;1577;49.912;10.924;2023-08-20T00:08:06;24.20;99.90
3134;DHT22;1577;49.912;10.924;2023-08-20T00:10:31;24.30;99.90
3134;DHT22;1577;49.912;10.924;2023-08-20T00:12:58;24.30;99.90
3134;DHT22;1577;49.912;10.924;2023-08-20T00:15:23;24.20;99.90
3134;DHT22;1577;49.912;10.924;2023-08-20T00:17:52;24.30;99.90
3134;DHT22;1577;49.912;10.924;2023-08-20T00:20:18;24.30;99.90
3134;DHT22;1577;49.912;10.924;2023-08-20T00:22:45;24.30;99.90
3134;DHT22;1577;49.912;10.924;2023-08-20T00:25:13;24.30;99.90
3134;DHT22;1577;49.912;10.924;2023-08-20T00:27:39;24.30;99.90
3134;DHT22;1577;49.912;10.924;2023-08-20T00:30:06;24.20;99.90
3134;DHT22;1577;49.912;10.924;2023-08-20T00:32:32;24.10;99.90
3134;DHT22;1577;49.912;10.924;2023-08-20T00:34:57;24.10;99.90
3134;DHT22;1577;49.912;10.924;2023-08-20T00:37:23;24.10;99.90
3134;DHT22;1577;49.912;10.924;2023-08-20T00:39:49;24.10;99.90
3134;DHT22;1577;49.912;10.924;2023-08-20T00:42:14;24.00;99.90
3134;DHT22;1577;49.912;10.924;2023-08-20T00:44:41;24.20;99.90
3134;DHT22;1577;49.912;10.924;2023-08-20T00:47:09;24.20;99.90
3134;DHT22;1577;49.912;10.924;2023-08-20T00:49:35;24.20;99.90
3134;DHT22;1577;49.912;10.924;2023-08-20T00:52:01;24.10;99.90
3134;DHT22;1577;49.912;10.924;2023-08-20T00:54:27;24.10;99.90
3134;DHT22;1577;49.912;10.924;2023-08-20T00:56:54;24.10;99.90
3134;DHT22;1577;49.912;10.924;2023-08-20T00:59:20;24.20;99.90
3134;DHT22;1577;49.912;10.924;2023-08-20T01:01:46;24.10;99.90
3134;DHT22;1577;49.912;10.924;2023-08-20T01:04:12;24.10;99.90
3134;DHT22;1577;49.912;10.924;2023-08-20T01:06:50;24.20;99.90
3134;DHT22;1577;49.912;10.924;2023-08-20T01:10:04;24.10;99.90
3134;DHT22;1577;49.912;10.924;2023-08-20T01:12:34;24.00;99.90
3134;DHT22;1577;49.912;10.924;2023-08-20T01:15:00;24.00;99.90
3134;DHT22;1577;49.912;10.924;2023-08-20T01:17:26;23.90;99.90
3134;DHT22;1577;49.912;10.924;2023-08-20T01:19:52;23.70;99.90
3134;DHT22;1577;49.912;10.924;2023-08-20T01:25:38;23.70;99.90
3134;DHT22;1577;49.912;10.924;2023-08-20T01:28:30;23.70;99.90
3134;DHT22;1577;49.912;10.924;2023-08-20T01:30:57;23.60;99.90
3134;DHT22;1577;49.912;10.924;2023-08-20T01:33:23;23.50;99.90
3134;DHT22;1577;49.912;10.924;2023-08-20T01:35:52;23.40;99.90
3134;DHT22;1577;49.912;10.924;2023-08-20T01:38:18;23.40;99.90
3134;DHT22;1577;49.912;10.924;2023-08-20T01:40:44;23.60;99.90
3134;DHT22;1577;49.912;10.924;2023-08-20T01:43:10;23.60;99.90
3134;DHT22;1577;49.912;10.924;2023-08-20T01:45:36;23.60;99.90
3134;DHT22;1577;49.912;10.924;2023-08-20T01:48:02;23.50;99.90
3134;DHT22;1577;49.912;10.924;2023-08-20T01:50:29;23.50;99.90
3134;DHT22;1577;49.912;10.924;2023-08-20T01:52:54;23.50;99.90
3134;DHT22;1577;49.912;10.924;2023-08-20T01:55:20;23.30;99.90
3134;DHT22;1577;49.912;10.924;2023-08-20T01:57:46;23.30;99.90
3134;DHT22;1577;49.912;10.924;2023-08-20T02:00:12;23.30;99.90
3134;DHT22;1577;49.912;10.924;2023-08-20T02:02:37;23.20;99.90
3134;DHT22;1577;49.912;10.924;2023-08-20T02:05:03;23.20;99.90
3134;DHT22;1577;49.912;10.924;2023-08-20T02:07:29;23.10;99.90
3134;DHT22;1577;49.912;10.924;2023-08-20T02:09:54;23.10;99.90
3134;DHT22;1577;49.912;10.924;2023-08-20T02:12:20;23.00;99.90
3134;DHT22;1577;49.912;10.924;2023-08-20T02:14:46;22.90;99.90
3134;DHT22;1577;49.912;10.924;2023-08-20T02:17:11;22.90;99.90
3134;DHT22;1577;49.912;10.924;2023-08-20T02:19:37;23.00;99.90
3134;DHT22;1577;49.912;10.924;2023-08-20T02:22:03;22.90;99.90
3134;DHT22;1577;49.912;10.924;2023-08-20T02:24:29;22.90;99.90
3134;DHT22;1577;49.912;10.924;2023-08-20T02:26:55;22.90;99.90
3134;DHT22;1577;49.912;10.924;2023-08-20T02:29:20;22.90;99.90
3134;DHT22;1577;49.912;10.924;2023-08-20T02:31:46;22.90;99.90
3134;DHT22;1577;49.912;10.924;2023-08-20T02:34:12;22.80;99.90
3134;DHT22;1577;49.912;10.924;2023-08-20T02:36:37;22.80;99.90
3134;DHT22;1577;49.912;10.924;2023-08-20T02:39:03;22.70;99.90
3134;DHT22;1577;49.912;10.924;2023-08-20T02:41:35;22.60;99.90
3134;DHT22;1577;49.912;10.924;2023-08-20T02:44:02;22.50;99.90
3134;DHT22;1577;49.912;10.924;2023-08-20T02:46:28;22.50;99.90
3134;DHT22;1577;49.912;10.924;2023-08-20T02:48:53;22.50;99.90
3134;DHT22;1577;49.912;10.924;2023-08-20T02:51:19;22.50;99.90
3134;DHT22;1577;49.912;10.924;2023-08-20T02:53:44;22.50;99.90
3134;DHT22;1577;49.912;10.924;2023-08-20T02:56:10;22.40;99.90
3134;DHT22;1577;49.912;10.924;2023-08-20T02:58:35;22.40;99.90
3134;DHT22;1577;49.912;10.924;2023-08-20T03:01:01;22.30;99.90
3134;DHT22;1577;49.912;10.924;2023-08-20T03:03:27;22.30;99.90
3134;DHT22;1577;49.912;10.924;2023-08-20T03:05:52;22.30;99.90
3134;DHT22;1577;49.912;10.924;2023-08-20T03:08:18;22.30;99.90
3134;DHT22;1577;49.912;10.924;2023-08-20T03:10:44;22.30;99.90
3134;DHT22;1577;49.912;10.924;2023-08-20T03:13:09;22.30;99.90
3134;DHT22;1577;49.912;10.924;2023-08-20T03:15:35;22.20;99.90
3134;DHT22;1577;49.912;10.924;2023-08-20T03:18:00;22.20;99.90
3134;DHT22;1577;49.912;10.924;2023-08-20T03:20:26;22.20;99.90
3134;DHT22;1577;49.912;10.924;2023-08-20T03:22:53;22.20;99.90
3134;DHT22;1577;49.912;10.924;2023-08-20T03:25:19;22.20;99.90
3134;DHT22;1577;49.912;10.924;2023-08-20T03:27:45;22.10;99.90
3134;DHT22;1577;49.912;10.924;2023-08-20T03:30:10;22.00;99.90
3134;DHT22;1577;49.912;10.924;2023-08-20T03:32:37;22.00;99.90
3134;DHT22;1577;49.912;10.924;2023-08-20T03:35:04;22.00;99.90
3134;DHT22;1577;49.912;10.924;2023-08-20T03:37:29;22.00;99.90
3134;DHT22;1577;49.912;10.924;2023-08-20T03:39:55;22.00;99.90
3134;DHT22;1577;49.912;10.924;2023-08-20T03:42:20;22.00;99.90
3134;DHT22;1577;49.912;10.924;2023-08-20T03:44:46;21.90;99.90
3134;DHT22;1577;49.912;10.924;2023-08-20T03:47:11;21.90;99.90
3134;DHT22;1577;49.912;10.924;2023-08-20T03:49:37;21.80;99.90
3134;DHT22;1577;49.912;10.924;2023-08-20T03:52:03;21.80;99.90
3134;DHT22;1577;49.912;10.924;2023-08-20T03:54:29;21.90;99.90
3134;DHT22;1577;49.912;10.924;2023-08-20T03:56:55;21.80;99.90
3134;DHT22;1577;49.912;10.924;2023-08-20T03:59:21;21.70;99.90
3134;DHT22;1577;49.912;10.924;2023-08-20T04:01:47;21.70;99.90
3134;DHT22;1577;49.912;10.924;2023-08-20T04:04:12;21.70;99.90
3134;DHT22;1577;49.912;10.924;2023-08-20T04:06:38;21.70;99.90
3134;DHT22;1577;49.912;10.924;2023-08-20T04:09:04;21.60;99.90
3134;DHT22;1577;49.912;10.924;2023-08-20T04:11:30;21.60;99.90
3134;DHT22;1577;49.912;10.924;2023-08-20T04:13:56;21.60;99.90
3134;DHT22;1577;49.912;10.924;2023-08-20T04:16:21;21.50;99.90
3134;DHT22;1577;49.912;10.924;2023-08-20T04:18:47;21.60;99.90
3134;DHT22;1577;49.912;10.924;2023-08-20T04:21:13;21.50;99.90
3134;DHT22;1577;49.912;10.924;2023-08-20T04:23:38;21.40;99.90
3134;DHT22;1577;49.912;10.924;2023-08-20T04:26:04;21.40;99.90
3134;DHT22;1577;49.912;10.924;2023-08-20T04:28:30;21.40;99.90
3134;DHT22;1577;49.912;10.924;2023-08-20T04:30:55;21.40;99.90
3134;DHT22;1577;49.912;10.924;2023-08-20T04:33:21;21.50;99.90
3134;DHT22;1577;49.912;10.924;2023-08-20T04:35:48;21.50;99.90
3134;DHT22;1577;49.912;10.924;2023-08-20T04:38:16;21.50;99.90
3134;DHT22;1577;49.912;10.924;2023-08-20T04:40:41;21.50;99.90
3134;DHT22;1577;49.912;10.924;2023-08-20T04:43:07;21.60;99.90
3134;DHT22;1577;49.912;10.924;2023-08-20T04:45:32;21.60;99.90
3134;DHT22;1577;49.912;10.924;2023-08-20T04:47:59;21.70;99.90
3134;DHT22;1577;49.912;10.924;2023-08-20T04:50:24;21.70;99.90
3134;DHT22;1577;49.912;10.924;2023-08-20T04:52:50;21.80;99.90
3134;DHT22;1577;49.912;10.924;2023-08-20T04:55:15;21.90;99.90
3134;DHT22;1577;49.912;10.924;2023-08-20T04:57:41;21.90;99.90
3134;DHT22;1577;49.912;10.924;2023-08-20T05:00:07;21.90;99.90
3134;DHT22;1577;49.912;10.924;2023-08-20T05:02:35;22.00;99.90
3134;DHT22;1577;49.912;10.924;2023-08-20T05:05:01;22.00;99.90
3134;DHT22;1577;49.912;10.924;2023-08-20T05:07:27;22.10;99.90
3134;DHT22;1577;49.912;10.924;2023-08-20T05:09:52;22.20;99.90
3134;DHT22;1577;49.912;10.924;2023-08-20T05:12:18;22.30;99.90
3134;DHT22;1577;49.912;10.924;2023-08-20T05:14:44;22.40;99.90
3134;DHT22;1577;49.912;10.924;2023-08-20T05:17:09;22.50;99.90
3134;DHT22;1577;49.912;10.924;2023-08-20T05:19:35;22.60;99.90
3134;DHT22;1577;49.912;10.924;2023-08-20T05:22:00;22.70;99.90
3134;DHT22;1577;49.912;10.924;2023-08-20T05:24:26;22.80;99.90
3134;DHT22;1577;49.912;10.924;2023-08-20T05:27:08;22.90;99.90
3134;DHT22;1577;49.912;10.924;2023-08-20T05:29:34;23.00;99.90
3134;DHT22;1577;49.912;10.924;2023-08-20T05:31:59;23.10;99.90
3134;DHT22;1577;49.912;10.924;2023-08-20T05:34:25;23.10;99.90
3134;DHT22;1577;49.912;10.924;2023-08-20T05:36:51;23.10;99.90
3134;DHT22;1577;49.912;10.924;2023-08-20T05:39:16;23.10;99.90
3134;DHT22;1577;49.912;10.924;2023-08-20T05:41:42;23.20;99.90
3134;DHT22;1577;49.912;10.924;2023-08-20T05:44:07;23.30;99.90
3134;DHT22;1577;49.912;10.924;2023-08-20T05:46:33;23.30;99.90
3134;DHT22;1577;49.912;10.924;2023-08-20T05:48:58;23.20;99.90
3134;DHT22;1577;49.912;10.924;2023-08-20T05:51:24;23.30;99.90
3134;DHT22;1577;49.912;10.924;2023-08-20T05:53:50;23.30;99.90
3134;DHT22;1577;49.912;10.924;2023-08-20T05:56:15;23.30;99.90
3134;DHT22;1577;49.912;10.924;2023-08-20T05:58:41;23.30;99.90
3134;DHT22;1577;49.912;10.924;2023-08-20T06:01:06;23.50;99.90
3134;DHT22;1577;49.912;10.924;2023-08-20T06:03:32;23.40;99.90
3134;DHT22;1577;49.912;10.924;2023-08-20T06:05:58;23.50;99.90
3134;DHT22;1577;49.912;10.924;2023-08-20T06:08:24;23.50;99.90
3134;DHT22;1577;49.912;10.924;2023-08-20T06:10:50;23.70;99.90
3134;DHT22;1577;49.912;10.924;2023-08-20T06:13:16;23.80;99.90
3134;DHT22;1577;49.912;10.924;2023-08-20T06:15:41;23.90;99.90
3134;DHT22;1577;49.912;10.924;2023-08-20T06:18:07;24.00;99.90
3134;DHT22;1577;49.912;10.924;2023-08-20T06:20:32;24.20;99.90
3134;DHT22;1577;49.912;10.924;2023-08-20T06:22:58;24.30;99.90
3134;DHT22;1577;49.912;10.924;2023-08-20T06:25:23;24.60;99.90
3134;DHT22;1577;49.912;10.924;2023-08-20T06:27:49;25.20;99.90
3134;DHT22;1577;49.912;10.924;2023-08-20T06:30:15;26.20;99.90
3134;DHT22;1577;49.912;10.924;2023-08-20T06:32:41;27.10;99.90
3134;DHT22;1577;49.912;10.924;2023-08-20T06:35:07;28.20;99.90
3134;DHT22;1577;49.912;10.924;2023-08-20T06:40:00;30.50;99.90
3134;DHT22;1577;49.912;10.924;2023-08-20T06:42:25;31.40;99.90
3134;DHT22;1577;49.912;10.924;2023-08-20T06:44:51;31.70;99.90
3134;DHT22;1577;49.912;10.924;2023-08-20T06:47:17;31.80;99.90
3134;DHT22;1577;49.912;10.924;2023-08-20T06:49:42;32.10;99.90
3134;DHT22;1577;49.912;10.924;2023-08-20T06:52:08;31.90;99.90
3134;DHT22;1577;49.912;10.924;2023-08-20T06:54:33;31.70;99.90
3134;DHT22;1577;49.912;10.924;2023-08-20T06:56:59;31.40;99.90
3134;DHT22;1577;49.912;10.924;2023-08-20T06:59:24;31.20;99.90
3134;DHT22;1577;49.912;10.924;2023-08-20T07:01:50;31.20;99.90
3134;DHT22;1577;49.912;10.924;2023-08-20T07:04:16;31.60;99.90
3134;DHT22;1577;49.912;10.924;2023-08-20T07:06:41;32.30;99.90
3134;DHT22;1577;49.912;10.924;2023-08-20T07:09:07;32.70;99.90
3134;DHT22;1577;49.912;10.924;2023-08-20T07:11:32;32.80;99.90
3134;DHT22;1577;49.912;10.924;2023-08-20T07:13:58;33.10;99.90
3134;DHT22;1577;49.912;10.924;2023-08-20T07:16:24;33.40;99.90
3134;DHT22;1577;49.912;10.924;2023-08-20T07:18:49;33.40;99.90
3134;DHT22;1577;49.912;10.924;2023-08-20T07:21:15;33.30;99.90
3134;DHT22;1577;49.912;10.924;2023-08-20T07:23:40;33.30;99.90
3134;DHT22;1577;49.912;10.924;2023-08-20T07:26:08;33.60;99.90
3134;DHT22;1577;49.912;10.924;2023-08-20T07:28:34;34.20;99.90
3134;DHT22;1577;49.912;10.924;2023-08-20T07:31:18;34.90;99.90
3134;DHT22;1577;49.912;10.924;2023-08-20T07:33:48;35.60;99.90
3134;DHT22;1577;49.912;10.924;2023-08-20T07:36:14;35.90;99.40
3134;DHT22;1577;49.912;10.924;2023-08-20T07:38:40;36.40;98.80
3134;DHT22;1577;49.912;10.924;2023-08-20T07:41:11;36.90;97.30
3134;DHT22;1577;49.912;10.924;2023-08-20T07:43:40;37.20;96.60
3134;DHT22;1577;49.912;10.924;2023-08-20T07:46:07;37.70;96.60
3134;DHT22;1577;49.912;10.924;2023-08-20T07:48:33;37.80;96.40
3134;DHT22;1577;49.912;10.924;2023-08-20T07:51:00;38.20;95.00
3134;DHT22;1577;49.912;10.924;2023-08-20T07:53:26;38.30;94.90
3134;DHT22;1577;49.912;10.924;2023-08-20T07:55:54;38.50;94.00
3134;DHT22;1577;49.912;10.924;2023-08-20T07:58:20;38.70;92.60
3134;DHT22;1577;49.912;10.924;2023-08-20T08:00:45;38.90;92.10
3134;DHT22;1577;49.912;10.924;2023-08-20T08:05:49;39.10;91.00
3134;DHT22;1577;49.912;10.924;2023-08-20T08:08:18;39.40;90.80
3134;DHT22;1577;49.912;10.924;2023-08-20T08:10:44;39.70;90.00
3134;DHT22;1577;49.912;10.924;2023-08-20T08:13:15;39.90;89.60
3134;DHT22;1577;49.912;10.924;2023-08-20T08:15:41;40.00;87.70
3134;DHT22;1577;49.912;10.924;2023-08-20T08:18:07;40.20;86.10
3134;DHT22;1577;49.912;10.924;2023-08-20T08:20:33;40.20;83.80
3134;DHT22;1577;49.912;10.924;2023-08-20T08:22:58;39.90;83.50
3134;DHT22;1577;49.912;10.924;2023-08-20T08:25:24;39.60;84.90
3134;DHT22;1577;49.912;10.924;2023-08-20T08:27:50;39.30;85.60
3134;DHT22;1577;49.912;10.924;2023-08-20T08:30:15;39.60;84.20
3134;DHT22;1577;49.912;10.924;2023-08-20T08:32:41;39.70;82.40
3134;DHT22;1577;49.912;10.924;2023-08-20T08:35:07;39.70;82.40
3134;DHT22;1577;49.912;10.924;2023-08-20T08:37:33;39.40;82.00
3134;DHT22;1577;49.912;10.924;2023-08-20T08:39:58;39.30;81.70
3134;DHT22;1577;49.912;10.924;2023-08-20T08:42:24;39.30;81.90
3134;DHT22;1577;49.912;10.924;2023-08-20T08:44:50;39.40;84.90
3134;DHT22;1577;49.912;10.924;2023-08-20T08:47:17;39.40;81.80
3134;DHT22;1577;49.912;10.924;2023-08-20T08:49:45;39.50;81.60
3134;DHT22;1577;49.912;10.924;2023-08-20T08:52:15;39.50;81.30
3134;DHT22;1577;49.912;10.924;2023-08-20T08:54:41;38.80;80.60
3134;DHT22;1577;49.912;10.924;2023-08-20T08:57:06;39.10;81.60
3134;DHT22;1577;49.912;10.924;2023-08-20T08:59:32;39.50;81.80
3134;DHT22;1577;49.912;10.924;2023-08-20T09:01:58;39.70;80.40
3134;DHT22;1577;49.912;10.924;2023-08-20T09:04:23;39.30;79.00
3134;DHT22;1577;49.912;10.924;2023-08-20T09:06:55;39.30;78.90
3134;DHT22;1577;49.912;10.924;2023-08-20T09:09:21;39.10;82.00
3134;DHT22;1577;49.912;10.924;2023-08-20T09:11:48;39.10;79.40
3134;DHT22;1577;49.912;10.924;2023-08-20T09:14:24;38.70;81.90
3134;DHT22;1577;49.912;10.924;2023-08-20T09:16:58;38.60;79.90
3134;DHT22;1577;49.912;10.924;2023-08-20T09:19:23;38.90;80.40
3134;DHT22;1577;49.912;10.924;2023-08-20T09:21:49;39.00;79.70
3134;DHT22;1577;49.912;10.924;2023-08-20T09:24:25;39.00;80.20
3134;DHT22;1577;49.912;10.924;2023-08-20T09:26:57;39.20;81.00
3134;DHT22;1577;49.912;10.924;2023-08-20T09:29:23;39.20;80.10
3134;DHT22;1577;49.912;10.924;2023-08-20T09:31:49;39.10;79.50
3134;DHT22;1577;49.912;10.924;2023-08-20T09:34:14;38.90;80.90
3134;DHT22;1577;49.912;10.924;2023-08-20T09:36:40;38.90;80.20
3134;DHT22;1577;49.912;10.924;2023-08-20T09:39:05;38.50;80.30
3134;DHT22;1577;49.912;10.924;2023-08-20T09:41:31;38.50;80.30
3134;DHT22;1577;49.912;10.924;2023-08-20T09:43:59;38.50;80.90
3134;DHT22;1577;49.912;10.924;2023-08-20T09:46:27;37.90;81.30
3134;DHT22;1577;49.912;10.924;2023-08-20T09:48:55;36.90;83.30
3134;DHT22;1577;49.912;10.924;2023-08-20T09:51:28;37.00;84.00
3134;DHT22;1577;49.912;10.924;2023-08-20T09:54:19;37.30;82.50
3134;DHT22;1577;49.912;10.924;2023-08-20T09:56:51;37.30;83.70
3134;DHT22;1577;49.912;10.924;2023-08-20T09:59:19;37.30;85.00
3134;DHT22;1577;49.912;10.924;2023-08-20T10:01:46;37.60;85.30
3134;DHT22;1577;49.912;10.924;2023-08-20T10:04:13;37.70;83.80
3134;DHT22;1577;49.912;10.924;2023-08-20T10:06:40;37.60;84.50
3134;DHT22;1577;49.912;10.924;2023-08-20T10:09:07;37.30;83.50
3134;DHT22;1577;49.912;10.924;2023-08-20T10:11:32;36.70;84.50
3134;DHT22;1577;49.912;10.924;2023-08-20T10:13:58;35.70;84.90
3134;DHT22;1577;49.912;10.924;2023-08-20T10:16:25;35.40;85.90
3134;DHT22;1577;49.912;10.924;2023-08-20T10:18:52;35.10;88.00
3134;DHT22;1577;49.912;10.924;2023-08-20T10:21:24;34.90;88.50
3134;DHT22;1577;49.912;10.924;2023-08-20T10:23:50;34.40;89.80
3134;DHT22;1577;49.912;10.924;2023-08-20T10:26:16;34.40;90.20
3134;DHT22;1577;49.912;10.924;2023-08-20T10:28:42;34.40;90.80
3134;DHT22;1577;49.912;10.924;2023-08-20T10:31:10;34.50;90.30
3134;DHT22;1577;49.912;10.924;2023-08-20T10:36:20;34.30;90.50
3134;DHT22;1577;49.912;10.924;2023-08-20T10:38:48;34.40;90.60
3134;DHT22;1577;49.912;10.924;2023-08-20T10:41:15;34.50;90.60
3134;DHT22;1577;49.912;10.924;2023-08-20T10:43:49;34.50;90.90
3134;DHT22;1577;49.912;10.924;2023-08-20T10:48:56;33.90;91.00
3134;DHT22;1577;49.912;10.924;2023-08-20T10:56:44;33.60;91.60
3134;DHT22;1577;49.912;10.924;2023-08-20T10:59:25;33.60;91.40
3134;DHT22;1577;49.912;10.924;2023-08-20T11:01:55;33.50;91.80
3134;DHT22;1577;49.912;10.924;2023-08-20T11:04:23;33.40;92.10
3134;DHT22;1577;49.912;10.924;2023-08-20T11:06:56;33.60;92.00
3134;DHT22;1577;49.912;10.924;2023-08-20T11:09:23;33.70;91.70
3134;DHT22;1577;49.912;10.924;2023-08-20T11:11:50;33.80;91.30
3134;DHT22;1577;49.912;10.924;2023-08-20T11:14:18;33.90;91.30
3134;DHT22;1577;49.912;10.924;2023-08-20T11:16:45;34.00;91.50
3134;DHT22;1577;49.912;10.924;2023-08-20T11:19:12;34.10;92.00
3134;DHT22;1577;49.912;10.924;2023-08-20T11:21:39;34.10;91.40
3134;DHT22;1577;49.912;10.924;2023-08-20T11:24:09;34.20;91.20
3134;DHT22;1577;49.912;10.924;2023-08-20T11:26:35;34.10;91.00
3134;DHT22;1577;49.912;10.924;2023-08-20T11:29:06;33.90;90.40
3134;DHT22;1577;49.912;10.924;2023-08-20T11:31:31;33.60;90.70
3134;DHT22;1577;49.912;10.924;2023-08-20T11:33:57;33.60;91.70
3134;DHT22;1577;49.912;10.924;2023-08-20T11:36:23;33.80;91.50
3134;DHT22;1577;49.912;10.924;2023-08-20T11:38:53;33.90;91.20
3134;DHT22;1577;49.912;10.924;2023-08-20T11:41:22;33.80;90.80
3134;DHT22;1577;49.912;10.924;2023-08-20T11:43:48;33.70;91.70
3134;DHT22;1577;49.912;10.924;2023-08-20T11:46:18;33.70;92.30
3134;DHT22;1577;49.912;10.924;2023-08-20T11:49:01;33.60;92.50
3134;DHT22;1577;49.912;10.924;2023-08-20T11:51:27;33.40;92.50
3134;DHT22;1577;49.912;10.924;2023-08-20T11:53:53;33.20;92.70
3134;DHT22;1577;49.912;10.924;2023-08-20T11:56:18;33.20;92.40
3134;DHT22;1577;49.912;10.924;2023-08-20T11:58:50;33.10;92.80
3134;DHT22;1577;49.912;10.924;2023-08-20T12:01:17;33.20;92.70
3134;DHT22;1577;49.912;10.924;2023-08-20T12:03:43;33.20;92.50
3134;DHT22;1577;49.912;10.924;2023-08-20T12:06:21;33.20;92.20
3134;DHT22;1577;49.912;10.924;2023-08-20T12:08:48;33.20;92.60
3134;DHT22;1577;49.912;10.924;2023-08-20T12:11:14;33.10;92.40
3134;DHT22;1577;49.912;10.924;2023-08-20T12:13:40;33.00;92.30
3134;DHT22;1577;49.912;10.924;2023-08-20T12:16:06;33.00;92.20
3134;DHT22;1577;49.912;10.924;2023-08-20T12:18:31;33.00;92.70
3134;DHT22;1577;49.912;10.924;2023-08-20T12:20:57;32.90;93.00
3134;DHT22;1577;49.912;10.924;2023-08-20T12:23:23;32.90;92.80
3134;DHT22;1577;49.912;10.924;2023-08-20T12:25:52;32.90;93.10
3134;DHT22;1577;49.912;10.924;2023-08-20T12:28:18;32.80;92.60
3134;DHT22;1577;49.912;10.924;2023-08-20T12:30:43;32.80;93.00
3134;DHT22;1577;49.912;10.924;2023-08-20T12:33:10;32.80;93.40
3134;DHT22;1577;49.912;10.924;2023-08-20T12:35:38;32.70;92.80
3134;DHT22;1577;49.912;10.924;2023-08-20T12:38:04;32.40;93.50
3134;DHT22;1577;49.912;10.924;2023-08-20T12:40:31;32.50;93.30
3134;DHT22;1577;49.912;10.924;2023-08-20T12:42:56;32.30;93.00
3134;DHT22;1577;49.912;10.924;2023-08-20T12:45:22;32.20;93.50
3134;DHT22;1577;49.912;10.924;2023-08-20T12:47:47;32.10;92.90
3134;DHT22;1577;49.912;10.924;2023-08-20T12:50:13;32.10;93.50
3134;DHT22;1577;49.912;10.924;2023-08-20T12:52:40;32.20;93.60
3134;DHT22;1577;49.912;10.924;2023-08-20T12:55:05;32.30;93.90
3134;DHT22;1577;49.912;10.924;2023-08-20T12:57:34;32.40;94.00
3134;DHT22;1577;49.912;10.924;2023-08-20T13:00:00;32.40;93.80
3134;DHT22;1577;49.912;10.924;2023-08-20T13:02:26;32.40;93.80
3134;DHT22;1577;49.912;10.924;2023-08-20T13:04:52;32.50;93.50
3134;DHT22;1577;49.912;10.924;2023-08-20T13:07:18;32.50;93.50
3134;DHT22;1577;49.912;10.924;2023-08-20T13:09:44;32.50;93.30
3134;DHT22;1577;49.912;10.924;2023-08-20T13:12:10;32.60;93.20
3134;DHT22;1577;49.912;10.924;2023-08-20T13:14:39;32.70;93.20
3134;DHT22;1577;49.912;10.924;2023-08-20T13:17:06;32.70;93.30
3134;DHT22;1577;49.912;10.924;2023-08-20T13:19:32;32.80;93.30
3134;DHT22;1577;49.912;10.924;2023-08-20T13:21:58;32.80;93.10
3134;DHT22;1577;49.912;10.924;2023-08-20T13:24:23;32.90;92.10
3134;DHT22;1577;49.912;10.924;2023-08-20T13:26:51;33.00;90.80
3134;DHT22;1577;49.912;10.924;2023-08-20T13:29:16;33.10;91.10
3134;DHT22;1577;49.912;10.924;2023-08-20T13:31:42;33.10;91.00
3134;DHT22;1577;49.912;10.924;2023-08-20T13:34:07;33.00;91.20
3134;DHT22;1577;49.912;10.924;2023-08-20T13:36:33;33.10;91.30
3134;DHT22;1577;49.912;10.924;2023-08-20T13:38:59;33.00;91.40
3134;DHT22;1577;49.912;10.924;2023-08-20T13:41:24;33.00;91.10
3134;DHT22;1577;49.912;10.924;2023-08-20T13:43:50;33.00;90.80
3134;DHT22;1577;49.912;10.924;2023-08-20T13:46:15;32.90;90.90
3134;DHT22;1577;49.912;10.924;2023-08-20T13:48:41;32.90;91.10
3134;DHT22;1577;49.912;10.924;2023-08-20T13:51:06;32.90;90.70
3134;DHT22;1577;49.912;10.924;2023-08-20T13:53:32;32.80;90.70
3134;DHT22;1577;49.912;10.924;2023-08-20T13:55:58;32.90;91.30
3134;DHT22;1577;49.912;10.924;2023-08-20T13:58:23;33.00;91.10
3134;DHT22;1577;49.912;10.924;2023-08-20T14:00:49;33.00;91.20
3134;DHT22;1577;49.912;10.924;2023-08-20T14:03:14;33.00;91.50
3134;DHT22;1577;49.912;10.924;2023-08-20T14:05:40;33.00;91.50
3134;DHT22;1577;49.912;10.924;2023-08-20T14:08:06;33.00;91.20
3134;DHT22;1577;49.912;10.924;2023-08-20T14:10:31;33.10;91.60
3134;DHT22;1577;49.912;10.924;2023-08-20T14:12:57;33.20;91.00
3134;DHT22;1577;49.912;10.924;2023-08-20T14:15:22;33.30;90.20
3134;DHT22;1577;49.912;10.924;2023-08-20T14:17:48;33.30;88.70
3134;DHT22;1577;49.912;10.924;2023-08-20T14:20:13;33.30;89.20
3134;DHT22;1577;49.912;10.924;2023-08-20T14:22:39;33.30;89.10
3134;DHT22;1577;49.912;10.924;2023-08-20T14:25:05;33.40;86.60
3134;DHT22;1577;49.912;10.924;2023-08-20T14:27:31;33.40;89.50
3134;DHT22;1577;49.912;10.924;2023-08-20T14:29:56;33.40;87.40
3134;DHT22;1577;49.912;10.924;2023-08-20T14:32:22;33.30;87.20
3134;DHT22;1577;49.912;10.924;2023-08-20T14:34:48;33.30;87.80
3134;DHT22;1577;49.912;10.924;2023-08-20T14:37:13;33.20;88.20
3134;DHT22;1577;49.912;10.924;2023-08-20T14:39:39;33.20;89.70
3134;DHT22;1577;49.912;10.924;2023-08-20T14:42:05;33.20;89.70
3134;DHT22;1577;49.912;10.924;2023-08-20T14:44:30;33.10;88.60
3134;DHT22;1577;49.912;10.924;2023-08-20T14:46:56;33.10;89.30
3134;DHT22;1577;49.912;10.924;2023-08-20T14:49:22;33.00;89.20
3134;DHT22;1577;49.912;10.924;2023-08-20T14:51:48;33.00;89.40
3134;DHT22;1577;49.912;10.924;2023-08-20T14:54:14;32.90;88.80
3134;DHT22;1577;49.912;10.924;2023-08-20T14:56:39;32.80;89.50
3134;DHT22;1577;49.912;10.924;2023-08-20T14:59:05;32.90;90.30
3134;DHT22;1577;49.912;10.924;2023-08-20T15:01:30;32.90;90.10
3134;DHT22;1577;49.912;10.924;2023-08-20T15:03:56;33.00;90.20
3134;DHT22;1577;49.912;10.924;2023-08-20T15:06:22;33.10;90.30
3134;DHT22;1577;49.912;10.924;2023-08-20T15:08:49;33.10;90.20
3134;DHT22;1577;49.912;10.924;2023-08-20T15:11:15;33.20;90.40
3134;DHT22;1577;49.912;10.924;2023-08-20T15:13:40;33.20;90.30
3134;DHT22;1577;49.912;10.924;2023-08-20T15:16:06;33.20;90.00
3134;DHT22;1577;49.912;10.924;2023-08-20T15:18:32;33.20;89.70
3134;DHT22;1577;49.912;10.924;2023-08-20T15:20:58;33.20;89.80
3134;DHT22;1577;49.912;10.924;2023-08-20T15:23:25;33.20;90.30
3134;DHT22;1577;49.912;10.924;2023-08-20T15:25:54;33.30;89.40
3134;DHT22;1577;49.912;10.924;2023-08-20T15:28:22;33.20;89.70
3134;DHT22;1577;49.912;10.924;2023-08-20T15:30:53;33.20;89.20
3134;DHT22;1577;49.912;10.924;2023-08-20T15:33:19;33.20;89.50
3134;DHT22;1577;49.912;10.924;2023-08-20T15:35:46;33.10;89.40
3134;DHT22;1577;49.912;10.924;2023-08-20T15:38:11;33.10;90.30
3134;DHT22;1577;49.912;10.924;2023-08-20T15:40:40;33.10;90.10
3134;DHT22;1577;49.912;10.924;2023-08-20T15:43:06;33.10;89.60
3134;DHT22;1577;49.912;10.924;2023-08-20T15:45:32;33.00;89.70
3134;DHT22;1577;49.912;10.924;2023-08-20T15:47:57;33.00;90.10
3134;DHT22;1577;49.912;10.924;2023-08-20T15:50:23;33.00;89.90
3134;DHT22;1577;49.912;10.924;2023-08-20T15:52:48;33.00;90.30
3134;DHT22;1577;49.912;10.924;2023-08-20T15:55:14;32.90;90.80
3134;DHT22;1577;49.912;10.924;2023-08-20T15:57:40;32.90;91.10
3134;DHT22;1577;49.912;10.924;2023-08-20T16:00:07;32.90;91.20